createdAt,value
2022-12-23T06:50:22.167Z,2.50
2022-12-23T06:53:24.177Z,2.63
2022-12-23T06:56:25.862Z,3.00
2022-12-23T06:59:28.631Z,3.30
2022-12-23T07:02:30.392Z,3.65
2022-12-23T07:05:37.351Z,2.95
2022-12-23T07:08:39.532Z,2.95
2022-12-23T07:11:41.252Z,3.13
2022-12-23T07:14:42.944Z,2.80
2022-12-23T07:17:44.740Z,2.83
2022-12-23T07:20:46.371Z,2.50
2022-12-23T07:23:48.045Z,1.95
2022-12-23T07:26:51.676Z,2.00
2022-12-23T07:29:53.586Z,1.67
2022-12-23T07:32:55.315Z,1.50
2022-12-23T07:35:59.295Z,1.40
2022-12-23T07:39:00.977Z,1.10
2022-12-23T07:42:33.763Z,1.55
2022-12-23T07:45:25.812Z,1.38
2022-12-23T07:48:27.630Z,1.27
2022-12-23T07:51:29.367Z,1.30
2022-12-23T07:54:31.195Z,1.00
2022-12-23T07:57:37.786Z,1.00
2022-12-23T08:00:39.700Z,0.90
2022-12-23T08:03:41.421Z,0.93
2022-12-23T08:06:43.241Z,1.02
2022-12-23T08:09:44.886Z,1.02
2022-12-23T08:12:46.611Z,1.40
2022-12-23T08:15:48.265Z,1.13
2022-12-23T08:18:50.038Z,1.63
2022-12-23T08:21:51.669Z,1.33
2022-12-23T08:24:53.600Z,0.95
2022-12-23T08:27:55.248Z,1.23
2022-12-23T08:31:23.073Z,1.38
2022-12-23T08:34:25.018Z,1.00
2022-12-23T08:37:26.769Z,1.02
2022-12-23T08:40:28.492Z,1.10
2022-12-23T08:43:35.561Z,0.93
2022-12-23T08:46:38.532Z,0.70
2022-12-23T08:49:40.312Z,0.60
2022-12-23T08:52:41.949Z,0.98
2022-12-23T08:55:47.150Z,1.00
2022-12-23T09:01:51.783Z,0.93
2022-12-23T09:04:53.534Z,1.00
2022-12-23T09:07:55.393Z,1.02
2022-12-23T09:10:57.075Z,0.50
2022-12-23T09:14:00.649Z,0.50
2022-12-23T09:17:02.302Z,0.50
2022-12-23T09:20:04.792Z,0.60
2022-12-23T09:23:06.833Z,0.60
2022-12-23T09:26:10.109Z,0.40
2022-12-23T09:29:11.746Z,0.52
2022-12-23T09:32:13.519Z,0.43
2022-12-23T09:35:15.235Z,0.50
2022-12-23T09:38:16.928Z,0.60
2022-12-23T09:41:47.481Z,0.50
2022-12-23T09:45:29.002Z,0.60
2022-12-23T09:48:37.592Z,0.50
2022-12-23T09:51:39.377Z,0.60
2022-12-23T09:54:48.438Z,0.82
2022-12-23T09:58:01.124Z,0.40
2022-12-23T10:01:28.879Z,0.50
2022-12-23T10:04:37.063Z,0.47
2022-12-23T10:07:53.487Z,0.50
2022-12-23T10:11:00.607Z,0.60
2022-12-23T10:14:14.492Z,1.00
2022-12-23T10:17:26.750Z,1.00
2022-12-23T10:20:44.331Z,0.98
2022-12-23T10:23:51.066Z,0.68
2022-12-23T10:26:56.989Z,0.60
2022-12-23T10:30:33.757Z,0.80
2022-12-23T10:33:56.001Z,0.65
2022-12-23T10:37:06.895Z,0.70
2022-12-23T10:40:14.945Z,0.70
2022-12-23T10:43:55.450Z,0.77
2022-12-23T10:47:05.009Z,0.70
2022-12-23T10:50:46.179Z,0.80
2022-12-23T10:53:57.423Z,0.82
2022-12-23T10:56:59.902Z,0.93
2022-12-23T11:00:01.662Z,1.10
2022-12-23T11:03:32.129Z,1.00
2022-12-23T11:06:39.320Z,1.23
2022-12-23T11:09:45.820Z,1.17
2022-12-23T11:12:52.702Z,1.10
2022-12-23T11:16:10.809Z,0.80
2022-12-23T11:19:16.643Z,1.15
2022-12-23T11:22:25.846Z,1.00
2022-12-23T11:25:37.555Z,1.20
2022-12-23T11:28:50.181Z,0.98
2022-12-23T11:31:52.266Z,1.00
2022-12-23T11:34:55.957Z,1.05
2022-12-23T11:38:00.554Z,1.10
2022-12-23T11:41:04.612Z,1.30
2022-12-23T11:44:19.897Z,1.10
2022-12-23T11:47:22.793Z,1.25
2022-12-23T11:50:25.745Z,1.02
2022-12-23T11:53:27.788Z,0.88
2022-12-23T11:56:36.657Z,1.10
2022-12-23T11:59:42.081Z,0.65
2022-12-23T12:02:45.872Z,0.80
2022-12-23T12:05:53.136Z,0.60
2022-12-23T12:08:58.766Z,1.02
2022-12-23T12:12:19.212Z,0.88
2022-12-23T12:15:43.353Z,0.80
2022-12-23T12:18:53.739Z,0.88
2022-12-23T12:22:02.065Z,1.08
2022-12-23T12:25:16.583Z,1.00
2022-12-23T12:28:23.817Z,0.70
2022-12-23T12:31:35.350Z,0.70
2022-12-23T12:35:02.147Z,0.60
2022-12-23T12:38:21.789Z,0.40
2022-12-23T12:41:32.674Z,0.73
2022-12-23T12:44:59.891Z,0.70
2022-12-23T12:48:41.438Z,0.70
2022-12-23T12:51:57.117Z,0.70
2022-12-23T12:55:07.636Z,0.95
2022-12-23T12:58:19.966Z,1.00
2022-12-23T13:01:47.215Z,1.00
2022-12-23T13:05:28.815Z,1.00
2022-12-23T13:09:02.202Z,1.20
2022-12-23T13:12:31.099Z,1.17
2022-12-23T13:15:43.084Z,0.80
2022-12-23T13:19:12.156Z,1.00
2022-12-23T13:22:18.307Z,1.13
2022-12-23T13:25:29.110Z,1.33
2022-12-23T13:28:58.426Z,1.20
2022-12-23T13:32:34.560Z,1.13
2022-12-23T13:36:01.238Z,1.10
2022-12-23T13:39:36.068Z,1.13
2022-12-23T13:42:48.289Z,1.15
2022-12-23T13:45:53.507Z,0.80
2022-12-23T13:49:18.418Z,0.82
2022-12-23T13:52:47.562Z,0.80
2022-12-23T13:56:07.029Z,0.60
2022-12-23T13:59:11.273Z,0.70
2022-12-23T14:02:36.886Z,0.40
2022-12-23T14:08:44.478Z,0.40
2022-12-23T14:11:46.714Z,0.50
2022-12-23T14:15:12.313Z,0.60
2022-12-23T14:18:42.910Z,0.75
2022-12-23T14:22:24.624Z,0.90
2022-12-23T14:25:43.581Z,0.45
2022-12-23T14:29:08.402Z,0.55
2022-12-23T14:32:27.413Z,0.70
2022-12-23T14:35:30.149Z,0.50
2022-12-23T14:38:34.679Z,0.60
2022-12-23T14:41:39.388Z,0.40
2022-12-23T14:44:41.307Z,0.30
2022-12-23T14:47:46.368Z,0.45
2022-12-23T14:51:08.013Z,0.50
2022-12-23T14:54:11.099Z,0.38
2022-12-23T14:57:27.534Z,0.50
2022-12-23T15:00:31.322Z,0.40
2022-12-23T15:03:39.995Z,0.43
2022-12-23T15:06:45.922Z,0.30
2022-12-23T15:09:55.704Z,0.30
2022-12-23T15:13:05.984Z,0.28
2022-12-23T15:16:15.461Z,0.32
2022-12-23T15:19:21.816Z,0.30
2022-12-23T15:22:32.461Z,0.43
2022-12-23T15:25:39.226Z,0.50
2022-12-23T15:28:41.943Z,0.40
2022-12-23T15:31:50.411Z,0.45
2022-12-23T15:34:55.474Z,0.43
2022-12-23T15:37:58.265Z,0.25
2022-12-23T15:41:02.829Z,0.40
2022-12-23T15:44:04.664Z,0.40
2022-12-23T15:47:36.979Z,0.50
2022-12-23T15:50:41.774Z,0.32
2022-12-23T15:56:50.075Z,0.30
2022-12-23T15:59:52.188Z,0.50
2022-12-23T16:03:01.858Z,0.38
2022-12-23T16:06:10.930Z,0.55
2022-12-23T16:09:12.628Z,0.30
2022-12-23T16:12:32.941Z,0.70
2022-12-23T16:15:34.598Z,0.90
2022-12-23T16:18:46.953Z,0.70
2022-12-23T16:21:49.562Z,0.65
2022-12-23T16:25:15.966Z,0.50
2022-12-23T16:28:23.978Z,1.15
2022-12-23T16:31:26.088Z,0.50
2022-12-23T16:34:31.056Z,0.63
2022-12-23T16:37:32.701Z,0.55
2022-12-23T16:40:34.427Z,0.80
2022-12-23T16:43:36.079Z,0.60
2022-12-23T16:46:41.809Z,0.52
2022-12-23T16:49:43.533Z,0.70
2022-12-23T16:52:45.204Z,0.90
2022-12-23T16:55:53.847Z,0.73
2022-12-23T16:58:58.506Z,0.80
